Time;durP1;ratioP1;P1;durP2;ratioP2;P2;SDS_P1;SDS_P2;PMS_P1;PMS_P2;Temp;Humidity;BMP_temperature;BMP_pressure;BME280_temperature;BME280_humidity;BME280_pressure;Samples;Min_cycle;Max_cycle;Signal;HPM_P1;HPM_P2
2021/08/10 00:01:58;;;;;;;99.03;44.65;;;;;;;25.19;100.00;100609.53;1832785;77;20888;-84
2021/08/10 00:04:25;;;;;;;88.87;44.70;;;;;;;25.19;100.00;100607.58;1832618;77;21902;-83
2021/08/10 00:06:51;;;;;;;98.17;48.55;;;;;;;25.15;100.00;100606.12;1832468;78;20963;-85
2021/08/10 00:09:16;;;;;;;92.53;45.15;;;;;;;25.07;100.00;100602.94;1832858;77;20922;-83
2021/08/10 00:11:42;;;;;;;91.92;46.05;;;;;;;25.10;100.00;100609.11;1832973;77;20911;-85
2021/08/10 00:14:10;;;;;;;88.70;44.83;;;;;;;25.13;100.00;100610.36;1832678;77;21006;-85
2021/08/10 00:16:37;;;;;;;83.90;44.00;;;;;;;25.15;100.00;100606.12;1816302;78;21507;-84
2021/08/10 00:19:03;;;;;;;98.07;44.45;;;;;;;25.15;100.00;100606.70;1832502;78;20999;-84
2021/08/10 00:21:28;;;;;;;90.42;43.30;;;;;;;25.13;100.00;100600.16;1832482;77;20879;-85
2021/08/10 00:23:54;;;;;;;85.55;43.02;;;;;;;25.02;100.00;100601.82;1816482;78;21577;-83
2021/08/10 00:26:21;;;;;;;85.70;42.62;;;;;;;24.95;100.00;100603.05;1832713;77;20865;-84
2021/08/10 00:28:47;;;;;;;82.45;43.23;;;;;;;24.92;100.00;100603.17;1832629;77;21131;-83
2021/08/10 00:31:12;;;;;;;88.80;41.65;;;;;;;24.91;100.00;100603.52;1832612;77;21574;-84
2021/08/10 00:33:39;;;;;;;86.70;44.00;;;;;;;24.91;100.00;100602.13;1828980;77;20852;-85
2021/08/10 00:36:05;;;;;;;94.77;45.23;;;;;;;24.86;100.00;100603.22;1826404;78;21015;-84
2021/08/10 00:38:31;;;;;;;86.08;42.85;;;;;;;24.87;100.00;100608.16;1826551;77;20972;-84
2021/08/10 00:40:59;;;;;;;94.22;43.25;;;;;;;24.80;100.00;100604.65;1826478;78;21460;-84
2021/08/10 00:43:38;;;;;;;91.12;45.78;;;;;;;24.75;100.00;100605.49;1826522;78;21455;-84
2021/08/10 00:46:08;;;;;;;90.97;45.67;;;;;;;24.68;100.00;100607.50;1826357;78;20963;-83
2021/08/10 00:48:35;;;;;;;101.30;46.60;;;;;;;24.62;100.00;100606.96;1826324;78;21031;-85
2021/08/10 00:51:02;;;;;;;97.95;45.65;;;;;;;24.64;100.00;100610.72;1826420;78;21062;-82
2021/08/10 00:53:28;;;;;;;94.55;45.70;;;;;;;24.66;100.00;100605.66;1805969;78;21084;-85
2021/08/10 00:55:54;;;;;;;103.10;46.42;;;;;;;24.66;100.00;100607.05;1826518;77;20911;-83
2021/08/10 00:58:21;;;;;;;103.95;52.03;;;;;;;24.66;100.00;100602.91;1823175;78;20976;-84
2021/08/10 01:00:47;;;;;;;111.47;52.10;;;;;;;24.62;100.00;100602.00;1826512;78;21045;-84
2021/08/10 01:03:13;;;;;;;109.60;51.18;;;;;;;24.58;100.00;100603.30;1826305;78;21007;-84
2021/08/10 01:05:45;;;;;;;97.45;48.42;;;;;;;24.59;100.00;100592.52;1826532;78;21153;-84
2021/08/10 01:08:45;;;;;;;103.10;49.90;;;;;;;24.64;100.00;100592.81;1769609;81;21507;-83
2021/08/10 01:11:53;;;;;;;99.47;49.40;;;;;;;24.64;100.00;100596.95;1769976;81;20992;-85
2021/08/10 01:14:29;;;;;;;100.60;49.95;;;;;;;24.62;100.00;100596.48;1769582;81;21566;-85
2021/08/10 01:17:09;;;;;;;98.03;47.53;;;;;;;24.61;100.00;100594.31;1767387;81;20999;-84
2021/08/10 01:20:05;;;;;;;106.83;49.45;;;;;;;24.60;100.00;100595.48;1751968;81;21087;-85
2021/08/10 01:22:33;;;;;;;103.42;50.15;;;;;;;24.56;100.00;100593.23;1696793;84;21573;-85
2021/08/10 01:25:31;;;;;;;99.10;51.05;;;;;;;24.56;100.00;100587.72;1696752;84;21091;-82
2021/08/10 01:28:34;;;;;;;100.95;48.90;;;;;;;24.58;100.00;100584.59;1696602;84;21009;-83
2021/08/10 01:31:22;;;;;;;109.05;52.17;;;;;;;24.56;100.00;100583.58;1699149;84;21562;-83
2021/08/10 01:33:52;;;;;;;114.95;51.02;;;;;;;24.57;100.00;100591.27;1696059;83;21506;-87
2021/08/10 01:36:21;;;;;;;109.05;52.45;;;;;;;24.58;100.00;100592.86;1692297;84;20991;-86
2021/08/10 01:38:52;;;;;;;111.77;52.83;;;;;;;24.52;100.00;100592.31;1692547;84;21113;-85
2021/08/10 01:41:20;;;;;;;107.45;50.52;;;;;;;24.43;100.00;100589.73;1631145;88;21044;-85
2021/08/10 01:43:48;;;;;;;115.45;52.30;;;;;;;24.40;100.00;100586.27;1631226;88;21125;-85
2021/08/10 01:46:14;;;;;;;104.55;51.95;;;;;;;24.41;100.00;100585.69;1631248;88;21158;-89
2021/08/10 01:48:41;;;;;;;121.67;52.98;;;;;;;24.43;100.00;100590.31;1637351;87;20973;-85
2021/08/10 01:51:08;;;;;;;95.30;47.38;;;;;;;24.42;100.00;100588.69;1637296;87;21687;-85
2021/08/10 01:53:36;;;;;;;105.63;51.35;;;;;;;24.39;100.00;100582.51;1637612;87;21038;-85
2021/08/10 01:56:02;;;;;;;107.63;52.40;;;;;;;24.37;100.00;100580.09;1637583;87;21612;-85
2021/08/10 01:58:30;;;;;;;102.92;49.33;;;;;;;24.34;100.00;100578.05;1633061;86;21082;-84
2021/08/10 02:00:57;;;;;;;100.15;50.28;;;;;;;24.29;100.00;100574.75;1604052;89;21165;-85
2021/08/10 02:03:25;;;;;;;111.65;51.75;;;;;;;24.29;100.00;100578.30;1603947;89;21043;-85
2021/08/10 02:05:53;;;;;;;91.05;47.45;;;;;;;24.30;100.00;100572.24;1604102;89;21105;-85
2021/08/10 02:08:19;;;;;;;101.18;48.85;;;;;;;24.30;100.00;100574.99;1626646;87;21098;-85
2021/08/10 02:10:46;;;;;;;96.28;48.90;;;;;;;24.31;100.00;100575.20;1638405;87;21099;-85
2021/08/10 02:13:13;;;;;;;107.58;48.50;;;;;;;24.27;100.00;100570.98;1638375;87;21038;-86
2021/08/10 02:15:46;;;;;;;97.90;49.73;;;;;;;24.24;100.00;100564.81;1646724;85;21093;-85
2021/08/10 02:18:12;;;;;;;98.25;48.28;;;;;;;24.26;100.00;100567.99;1674133;85;21601;-86
2021/08/10 02:20:39;;;;;;;100.58;48.48;;;;;;;24.25;100.00;100566.40;1698855;84;20962;-85
2021/08/10 02:23:09;;;;;;;101.27;48.85;;;;;;;24.20;100.00;100570.20;1702689;84;21313;-85
2021/08/10 02:25:37;;;;;;;103.72;52.00;;;;;;;24.16;100.00;100568.52;1702492;84;20950;-85
2021/08/10 02:28:05;;;;;;;99.65;50.75;;;;;;;24.14;100.00;100567.48;1702411;84;21570;-84
2021/08/10 02:30:36;;;;;;;99.52;50.28;;;;;;;24.17;100.00;100571.48;1702284;84;21030;-85
2021/08/10 02:33:08;;;;;;;100.90;52.15;;;;;;;24.16;100.00;100567.14;1703152;82;21018;-85
2021/08/10 02:35:36;;;;;;;94.85;50.85;;;;;;;24.15;100.00;100572.41;1739507;82;21116;-85
2021/08/10 02:38:07;;;;;;;114.32;51.37;;;;;;;24.13;100.00;100570.02;1776817;78;21550;-83
2021/08/10 02:40:35;;;;;;;96.17;49.30;;;;;;;24.14;100.00;100575.74;1826488;78;21076;-85
2021/08/10 02:43:03;;;;;;;90.97;48.65;;;;;;;24.10;100.00;100576.81;1826399;78;21043;-84
2021/08/10 02:45:34;;;;;;;84.42;45.73;;;;;;;24.10;100.00;100580.36;1826843;78;21010;-85
2021/08/10 02:48:01;;;;;;;96.63;48.65;;;;;;;24.10;100.00;100574.06;1824000;78;21007;-83
2021/08/10 02:50:30;;;;;;;99.20;47.88;;;;;;;24.13;100.00;100571.40;1812412;79;20979;-84
2021/08/10 02:52:56;;;;;;;95.77;48.13;;;;;;;24.16;100.00;100572.06;1812576;79;21104;-85
2021/08/10 02:55:23;;;;;;;97.20;47.62;;;;;;;24.20;100.00;100568.03;1812573;79;21042;-85
2021/08/10 02:58:13;;;;;;;91.05;48.90;;;;;;;24.22;100.00;100573.99;1812576;79;21113;-85
2021/08/10 03:00:56;;;;;;;80.92;44.38;;;;;;;24.22;100.00;100570.66;1812580;78;21729;-84
2021/08/10 03:03:26;;;;;;;91.80;47.93;;;;;;;24.23;100.00;100571.45;1810468;79;20995;-83
2021/08/10 03:05:59;;;;;;;86.45;46.10;;;;;;;24.26;100.00;100577.62;1812439;79;21062;-81
2021/08/10 03:08:35;;;;;;;92.60;46.53;;;;;;;24.16;100.00;100575.41;1812718;79;21008;-83
2021/08/10 03:11:04;;;;;;;96.22;46.37;;;;;;;24.17;100.00;100579.75;1812347;79;20995;-81
2021/08/10 03:13:37;;;;;;;87.85;47.75;;;;;;;24.22;100.00;100573.99;1812658;79;21073;-83
2021/08/10 03:16:05;;;;;;;77.90;44.73;;;;;;;24.26;100.00;100581.18;1824993;78;20952;-83
2021/08/10 03:18:36;;;;;;;83.70;43.45;;;;;;;24.29;100.00;100576.13;1826258;78;20983;-83
2021/08/10 03:21:04;;;;;;;100.85;50.00;;;;;;;24.32;100.00;100580.34;1826490;78;21038;-83
2021/08/10 03:23:34;;;;;;;97.12;48.55;;;;;;;24.35;100.00;100585.15;1826613;78;20999;-83
2021/08/10 03:26:01;;;;;;;93.60;45.43;;;;;;;24.42;100.00;100598.33;1826601;78;20968;-83
2021/08/10 03:28:29;;;;;;;88.05;44.58;;;;;;;24.44;100.00;100600.98;1826538;78;21011;-84
2021/08/10 03:30:58;;;;;;;90.15;47.58;;;;;;;24.45;100.00;100598.45;1814585;77;21085;-83
2021/08/10 03:33:30;;;;;;;86.60;47.15;;;;;;;24.46;100.00;100587.64;1774099;79;21019;-85
2021/08/10 03:35:57;;;;;;;102.00;47.53;;;;;;;24.51;100.00;100592.10;1737485;81;21081;-85
2021/08/10 03:38:28;;;;;;;92.35;48.23;;;;;;;24.53;100.00;100584.84;1765458;81;21070;-85
2021/08/10 03:40:54;;;;;;;88.25;48.83;;;;;;;24.59;100.00;100586.17;1764191;81;21597;-83
2021/08/10 03:43:21;;;;;;;92.30;47.40;;;;;;;24.62;100.00;100583.53;1765268;81;21041;-85
2021/08/10 03:45:52;;;;;;;99.90;50.05;;;;;;;24.72;100.00;100585.53;1765274;81;21092;-81
2021/08/10 03:48:20;;;;;;;92.17;47.17;;;;;;;24.79;100.00;100585.11;1765086;81;21004;-83
2021/08/10 03:50:52;;;;;;;86.92;47.78;;;;;;;24.80;100.00;100590.87;1765361;81;21079;-83
2021/08/10 03:53:24;;;;;;;94.37;48.93;;;;;;;24.66;100.00;100593.27;1765593;81;21589;-84
2021/08/10 03:55:51;;;;;;;99.17;49.13;;;;;;;24.60;100.00;100587.22;1738683;81;21018;-84
2021/08/10 03:58:22;;;;;;;91.57;47.62;;;;;;;24.65;100.00;100594.43;1734685;82;21084;-82
2021/08/10 04:00:51;;;;;;;84.07;44.42;;;;;;;24.68;100.00;100593.14;1734640;82;21009;-84
2021/08/10 04:03:18;;;;;;;101.80;46.45;;;;;;;24.79;100.00;100590.63;1734679;82;21278;-84
2021/08/10 04:05:46;;;;;;;94.67;47.60;;;;;;;24.88;100.00;100595.41;1734396;80;21001;-84
2021/08/10 04:08:15;;;;;;;90.25;46.37;;;;;;;24.96;100.00;100592.80;1734957;80;20990;-81
2021/08/10 04:10:45;;;;;;;82.85;45.67;;;;;;;25.08;100.00;100592.70;1734897;80;21053;-84
2021/08/10 04:13:12;;;;;;;96.42;48.75;;;;;;;25.17;100.00;100591.95;1734976;82;21550;-89
2021/08/10 04:15:46;;;;;;;101.92;52.05;;;;;;;25.28;100.00;100588.06;1734939;82;21543;-84
2021/08/10 04:18:23;;;;;;;107.92;52.60;;;;;;;25.44;100.00;100588.80;1734763;82;20998;-83
2021/08/10 04:20:52;;;;;;;114.32;53.98;;;;;;;25.55;100.00;100581.56;1734875;82;21037;-84
2021/08/10 04:23:19;;;;;;;107.30;55.17;;;;;;;25.67;100.00;100580.63;1734942;82;21545;-84
2021/08/10 04:25:46;;;;;;;102.07;52.30;;;;;;;25.77;100.00;100584.20;1734926;80;21565;-84
2021/08/10 04:28:13;;;;;;;103.92;53.75;;;;;;;25.89;100.00;100579.15;1735011;80;21072;-85
2021/08/10 04:30:41;;;;;;;106.00;53.55;;;;;;;26.03;100.00;100573.08;1735121;82;21045;-83
2021/08/10 04:33:08;;;;;;;109.75;53.98;;;;;;;26.17;100.00;100565.66;1773511;80;21023;-81
2021/08/10 04:35:37;;;;;;;100.53;51.42;;;;;;;26.26;100.00;100569.77;1796330;78;22078;-84
2021/08/10 04:38:04;;;;;;;86.70;46.63;;;;;;;26.40;100.00;100560.95;1717026;82;21104;-85
2021/08/10 04:40:31;;;;;;;89.72;47.13;;;;;;;26.51;100.00;100559.78;1716954;82;21606;-85
2021/08/10 04:42:58;;;;;;;86.15;44.55;;;;;;;26.61;100.00;100559.74;1716694;83;21071;-85
2021/08/10 04:45:24;;;;;;;97.65;46.33;;;;;;;26.75;100.00;100561.36;1717046;83;21013;-85
2021/08/10 04:47:52;;;;;;;81.92;42.70;;;;;;;26.91;100.00;100556.49;1717016;83;21512;-84
2021/08/10 04:50:19;;;;;;;86.22;42.55;;;;;;;27.11;100.00;100549.45;1716808;82;21098;-84
2021/08/10 04:52:45;;;;;;;99.22;48.45;;;;;;;27.23;100.00;100546.48;1746899;82;21069;-85
2021/08/10 04:55:11;;;;;;;93.17;47.88;;;;;;;27.36;100.00;100549.25;1748422;82;20861;-84
2021/08/10 04:57:37;;;;;;;88.87;45.90;;;;;;;27.56;100.00;100533.30;1748503;82;21053;-85
2021/08/10 05:00:05;;;;;;;85.35;42.15;;;;;;;27.75;100.00;100534.30;1748575;82;21047;-87
2021/08/10 05:02:32;;;;;;;87.95;42.60;;;;;;;27.90;100.00;100526.38;1748273;82;21815;-85
2021/08/10 05:04:57;;;;;;;73.30;39.40;;;;;;;28.08;100.00;100524.58;1748403;82;21087;-87
2021/08/10 05:07:23;;;;;;;75.85;37.50;;;;;;;28.25;100.00;100520.98;1748343;82;20964;-85
2021/08/10 05:09:49;;;;;;;81.57;38.85;;;;;;;28.37;100.00;100514.35;1748516;82;21717;-86
2021/08/10 05:12:15;;;;;;;72.00;38.17;;;;;;;28.49;100.00;100519.03;1748197;82;20877;-84
2021/08/10 05:14:41;;;;;;;76.47;36.20;;;;;;;28.58;100.00;100520.09;1748576;82;20965;-87
2021/08/10 05:17:07;;;;;;;80.55;37.25;;;;;;;28.68;100.00;100523.55;1748437;82;21087;-84
2021/08/10 05:19:33;;;;;;;85.10;33.98;;;;;;;28.80;100.00;100521.66;1748849;82;21785;-86
2021/08/10 05:21:59;;;;;;;69.87;32.88;;;;;;;28.92;100.00;100518.56;1723715;82;20968;-85
2021/08/10 05:24:24;;;;;;;64.62;32.23;;;;;;;29.03;100.00;100526.36;1748381;82;20869;-86
2021/08/10 05:26:50;;;;;;;62.10;30.85;;;;;;;29.14;100.00;100526.44;1748488;82;20889;-86
2021/08/10 05:29:16;;;;;;;69.10;31.52;;;;;;;29.17;100.00;100529.82;1723483;82;21154;-86
2021/08/10 05:31:42;;;;;;;63.68;30.45;;;;;;;29.21;100.00;100527.88;1748170;82;20905;-85
2021/08/10 05:34:08;;;;;;;55.95;28.17;;;;;;;29.17;100.00;100533.98;1757503;79;20888;-83
2021/08/10 05:36:34;;;;;;;58.70;29.30;;;;;;;29.22;100.00;100537.00;1787848;79;21563;-86
2021/08/10 05:39:00;;;;;;;57.03;28.27;;;;;;;29.31;100.00;100539.61;1826317;78;20847;-84
2021/08/10 05:41:26;;;;;;;47.50;26.23;;;;;;;29.30;100.00;100540.81;1829721;78;21030;-87
2021/08/10 05:43:51;;;;;;;56.95;25.35;;;;;;;29.34;100.00;100542.21;1829565;77;21604;-86
2021/08/10 05:46:17;;;;;;;49.05;24.35;;;;;;;29.32;100.00;100534.85;1801360;78;20870;-85
2021/08/10 05:48:43;;;;;;;52.53;23.12;;;;;;;29.40;100.00;100540.05;1796971;79;20990;-84
2021/08/10 05:51:09;;;;;;;41.40;21.73;;;;;;;29.61;100.00;100538.55;1820194;78;20974;-85
2021/08/10 05:53:35;;;;;;;45.25;22.37;;;;;;;29.76;100.00;100538.03;1829646;78;21677;-86
2021/08/10 05:56:02;;;;;;;49.70;20.80;;;;;;;29.95;100.00;100534.12;1829466;77;21034;-85
2021/08/10 05:58:29;;;;;;;44.05;21.60;;;;;;;30.25;100.00;100542.14;1829614;78;20958;-86
2021/08/10 06:00:55;;;;;;;43.17;20.80;;;;;;;30.60;100.00;100526.66;1799476;78;20986;-86
2021/08/10 06:03:20;;;;;;;53.13;20.35;;;;;;;30.88;100.00;100528.03;1829878;78;20843;-86
2021/08/10 06:05:47;;;;;;;47.40;18.67;;;;;;;31.20;100.00;100529.34;1829911;78;21661;-93
2021/08/10 06:08:13;;;;;;;35.00;16.62;;;;;;;31.94;100.00;100532.23;1829636;78;21431;-83
2021/08/10 06:10:41;;;;;;;32.98;17.07;;;;;;;33.48;100.00;100532.26;1796312;78;20878;-88
2021/08/10 06:13:06;;;;;;;33.33;15.75;;;;;;;35.19;100.00;100530.17;1829343;78;21057;-87
2021/08/10 06:15:32;;;;;;;37.20;15.23;;;;;;;36.52;100.00;100531.44;1829626;78;21656;-86
2021/08/10 06:17:58;;;;;;;29.37;14.43;;;;;;;37.17;100.00;100529.11;1829682;78;21037;-84
2021/08/10 06:20:24;;;;;;;30.15;14.93;;;;;;;37.71;96.87;100522.70;1829707;78;21021;-88
2021/08/10 06:22:50;;;;;;;29.52;13.58;;;;;;;38.56;83.69;100522.61;1829848;78;20950;-88
2021/08/10 06:25:16;;;;;;;30.32;14.33;;;;;;;39.50;74.52;100518.02;1829644;78;20982;-90
2021/08/10 06:27:45;;;;;;;27.67;13.55;;;;;;;40.49;69.75;100520.89;1829769;78;21509;-87
2021/08/10 06:30:13;;;;;;;32.28;13.80;;;;;;;41.37;58.31;100514.59;1799513;78;21162;-89
2021/08/10 06:32:41;;;;;;;25.30;11.85;;;;;;;42.17;56.31;100514.59;1829295;78;20984;-86
2021/08/10 06:35:09;;;;;;;29.42;12.20;;;;;;;42.40;48.91;100518.72;1829174;77;20968;-87
2021/08/10 06:37:34;;;;;;;25.75;12.58;;;;;;;41.74;45.17;100520.94;1829761;78;20982;-86
2021/08/10 06:40:00;;;;;;;18.77;11.45;;;;;;;41.16;47.03;100522.66;1829748;78;21553;-87
2021/08/10 06:42:26;;;;;;;20.92;12.13;;;;;;;41.65;48.83;100514.52;1829634;78;21105;-88
2021/08/10 06:44:52;;;;;;;20.57;11.20;;;;;;;42.67;45.96;100521.82;1829684;78;21141;-87
2021/08/10 06:47:19;;;;;;;22.80;11.12;;;;;;;43.04;41.74;100529.41;1829655;78;20976;-87
2021/08/10 06:49:45;;;;;;;25.30;12.13;;;;;;;42.45;42.37;100533.47;1829650;78;21523;-87
2021/08/10 06:52:11;;;;;;;22.45;11.50;;;;;;;41.78;43.28;100534.91;1829760;78;20943;-91
2021/08/10 06:54:38;;;;;;;21.82;11.25;;;;;;;41.18;43.85;100534.27;1829862;78;21695;-87
2021/08/10 06:57:07;;;;;;;18.90;11.00;;;;;;;40.64;44.25;100537.41;1811371;78;21007;-87
2021/08/10 06:59:36;;;;;;;27.27;11.22;;;;;;;40.45;44.68;100535.00;1829761;78;21011;-86
2021/08/10 07:02:06;;;;;;;22.95;11.43;;;;;;;40.56;45.07;100543.81;1733977;81;21586;-87
2021/08/10 07:04:33;;;;;;;20.45;11.78;;;;;;;40.73;45.77;100542.92;1733761;82;21546;-87
2021/08/10 07:07:05;;;;;;;28.77;13.25;;;;;;;41.36;43.75;100549.00;1733607;82;21152;-86
2021/08/10 07:09:31;;;;;;;27.07;11.93;;;;;;;41.40;42.34;100547.59;1728687;83;21168;-87
2021/08/10 07:11:57;;;;;;;27.87;12.58;;;;;;;40.74;42.36;100552.95;1728714;83;21062;-87
2021/08/10 07:14:26;;;;;;;24.52;11.70;;;;;;;39.99;42.77;100555.42;1728749;83;20959;-86
2021/08/10 07:16:52;;;;;;;30.77;11.73;;;;;;;39.40;44.90;100561.53;1704297;83;21069;-87
2021/08/10 07:19:18;;;;;;;26.48;11.35;;;;;;;38.78;45.80;100562.11;1728778;83;21927;-86
2021/08/10 07:21:44;;;;;;;24.15;10.50;;;;;;;38.24;46.65;100565.30;1704314;83;20907;-87
2021/08/10 07:24:10;;;;;;;29.52;11.45;;;;;;;37.77;48.00;100564.53;1728896;83;21011;-84
2021/08/10 07:26:36;;;;;;;23.80;11.70;;;;;;;37.35;51.08;100560.92;1728755;83;21199;-87
2021/08/10 07:29:04;;;;;;;24.27;11.63;;;;;;;36.89;52.33;100565.18;1704513;83;21006;-87
2021/08/10 07:31:30;;;;;;;30.52;12.40;;;;;;;36.52;55.22;100569.35;1728826;83;21147;-87
2021/08/10 07:33:56;;;;;;;28.45;11.60;;;;;;;36.40;56.83;100563.80;1728698;83;21510;-90
2021/08/10 07:36:22;;;;;;;24.95;13.18;;;;;;;36.15;59.46;100564.38;1739226;82;20907;-88
2021/08/10 07:38:48;;;;;;;24.65;11.88;;;;;;;35.90;61.73;100566.35;1737474;82;20840;-84
2021/08/10 07:41:14;;;;;;;22.67;12.50;;;;;;;35.60;64.92;100565.39;1741490;82;21073;-84
2021/08/10 07:43:40;;;;;;;28.10;14.15;;;;;;;35.44;65.86;100559.69;1741533;81;21860;-86
2021/08/10 07:46:06;;;;;;;25.02;15.15;;;;;;;35.38;67.88;100562.82;1740405;82;21602;-86
2021/08/10 07:48:34;;;;;;;32.85;15.35;;;;;;;35.34;70.28;100562.11;1739911;82;21550;-89
2021/08/10 07:51:00;;;;;;;25.27;15.30;;;;;;;35.19;71.97;100565.81;1739304;82;21046;-85
2021/08/10 07:53:26;;;;;;;27.58;15.65;;;;;;;34.97;74.12;100563.98;1715300;82;20998;-86
2021/08/10 07:55:52;;;;;;;25.88;14.05;;;;;;;34.76;76.28;100556.77;1715145;82;21076;-92
2021/08/10 07:58:19;;;;;;;31.02;15.10;;;;;;;34.69;80.17;100561.89;1748755;80;20928;-86
2021/08/10 08:00:45;;;;;;;34.00;14.63;;;;;;;34.43;83.55;100559.30;1776865;80;21380;-86
2021/08/10 08:03:11;;;;;;;29.75;14.13;;;;;;;34.27;86.18;100559.14;1777830;80;21078;-85
2021/08/10 08:05:43;;;;;;;34.67;15.03;;;;;;;34.27;89.37;100553.55;1739262;81;20978;-86
2021/08/10 08:08:09;;;;;;;30.87;14.03;;;;;;;34.29;89.53;100554.70;1740520;81;21241;-85
2021/08/10 08:10:34;;;;;;;26.17;14.30;;;;;;;34.37;90.08;100547.00;1774971;80;21142;-86
2021/08/10 08:13:00;;;;;;;30.85;13.40;;;;;;;34.60;90.02;100544.86;1776325;80;20900;-85
2021/08/10 08:15:26;;;;;;;29.92;12.93;;;;;;;34.85;89.18;100542.20;1776351;80;20912;-87
2021/08/10 08:17:52;;;;;;;24.40;12.37;;;;;;;35.19;85.22;100536.39;1776425;80;20995;-86
2021/08/10 08:20:18;;;;;;;24.52;11.03;;;;;;;35.19;85.22;100536.39;1776335;80;21108;-86
2021/08/10 08:22:45;;;;;;;22.90;9.50;;;;;;;35.24;73.97;100532.48;1776082;80;20992;-84
2021/08/10 08:25:12;;;;;;;20.57;9.48;;;;;;;35.45;71.20;100535.45;1775977;80;21033;-86
2021/08/10 08:27:38;;;;;;;19.35;9.88;;;;;;;35.52;66.39;100533.09;1776311;80;21007;-88
2021/08/10 08:30:07;;;;;;;23.07;9.55;;;;;;;35.56;64.98;100534.44;1800820;78;21526;-86
2021/08/10 08:32:33;;;;;;;24.23;8.75;;;;;;;35.63;62.95;100529.48;1820960;78;21149;-87
2021/08/10 08:34:59;;;;;;;20.43;10.23;;;;;;;35.72;62.87;100524.68;1820871;78;20879;-85
2021/08/10 08:37:26;;;;;;;21.73;10.45;;;;;;;35.84;65.45;100525.41;1821163;78;21514;-83
2021/08/10 08:42:21;;;;;;;22.80;11.15;;;;;;;35.79;65.09;100523.72;1725624;83;21057;-85
2021/08/10 08:44:49;;;;;;;19.75;11.18;;;;;;;35.73;63.02;100524.85;1726300;83;21491;-87
2021/08/10 08:47:19;;;;;;;18.70;10.30;;;;;;;35.64;63.74;100524.66;1725734;83;21644;-86
2021/08/10 08:49:48;;;;;;;23.52;11.60;;;;;;;35.55;64.19;100518.23;1663427;86;21062;-85
2021/08/10 08:52:17;;;;;;;20.35;10.48;;;;;;;35.53;64.11;100517.84;1666677;86;21062;-83
2021/08/10 08:54:43;;;;;;;21.33;11.12;;;;;;;35.65;65.98;100514.42;1666771;86;21082;-87
2021/08/10 08:57:10;;;;;;;23.12;11.22;;;;;;;35.77;63.36;100511.55;1662984;86;21093;-87
2021/08/10 08:59:42;;;;;;;20.45;10.50;;;;;;;35.81;63.52;100508.66;1666675;86;21097;-87
2021/08/10 09:02:17;;;;;;;20.35;10.85;;;;;;;35.96;63.63;100505.69;1666780;86;21058;-84
2021/08/10 09:04:44;;;;;;;27.15;12.00;;;;;;;36.07;61.96;100504.07;1666829;86;21034;-88
2021/08/10 09:07:17;;;;;;;22.40;10.50;;;;;;;36.31;62.02;100502.66;1666665;86;21019;-87
2021/08/10 09:09:45;;;;;;;25.80;11.53;;;;;;;36.53;60.63;100496.51;1666917;86;22038;-86
2021/08/10 09:12:16;;;;;;;21.87;10.80;;;;;;;36.61;60.23;100493.07;1666242;86;21058;-85
2021/08/10 09:14:52;;;;;;;18.82;10.68;;;;;;;36.77;60.58;100494.25;1666724;86;21022;-94
2021/08/10 09:17:23;;;;;;;18.67;11.30;;;;;;;36.98;57.25;100485.25;1666686;86;21070;-87
2021/08/10 09:20:03;;;;;;;22.10;10.30;;;;;;;37.11;58.01;100480.31;1666656;86;21509;-87
2021/08/10 09:22:33;;;;;;;20.85;10.32;;;;;;;37.39;55.59;100482.28;1666070;86;20952;-86
2021/08/10 09:25:08;;;;;;;20.32;10.55;;;;;;;37.81;53.17;100487.05;1666231;86;21086;-88
2021/08/10 09:27:40;;;;;;;23.47;11.53;;;;;;;37.95;52.59;100484.59;1662922;86;21038;-84
2021/08/10 09:30:15;;;;;;;21.85;11.38;;;;;;;38.23;51.93;100478.45;1653999;86;21010;-93
2021/08/10 09:32:59;;;;;;;29.15;11.97;;;;;;;38.74;51.84;100467.84;1627619;87;21125;-86
2021/08/10 09:35:36;;;;;;;19.45;10.70;;;;;;;39.52;49.04;100459.89;1647069;87;21128;-86
2021/08/10 09:38:20;;;;;;;22.37;10.10;;;;;;;39.92;46.38;100461.94;1640498;87;21033;-88
2021/08/10 09:40:51;;;;;;;19.87;9.83;;;;;;;40.25;46.01;100459.98;1641941;87;21028;-87
2021/08/10 09:43:35;;;;;;;22.40;9.67;;;;;;;40.71;44.33;100453.56;1642372;87;21108;-87
2021/08/10 09:46:18;;;;;;;22.65;9.50;;;;;;;41.09;44.31;100451.64;1688587;78;21356;-87
2021/08/10 09:48:54;;;;;;;18.77;9.50;;;;;;;41.29;42.36;100449.70;1809856;78;21821;-82
2021/08/10 09:51:28;;;;;;;14.70;9.10;;;;;;;41.21;41.56;100448.47;1809787;79;21011;-85
2021/08/10 09:53:58;;;;;;;18.40;8.43;;;;;;;41.08;40.76;100447.25;1776154;80;21079;-87
2021/08/10 09:57:01;;;;;;;17.62;8.18;;;;;;;41.21;40.21;100447.86;1776414;80;21512;-86
2021/08/10 09:59:43;;;;;;;12.20;8.15;;;;;;;41.25;38.61;100453.34;1776107;80;20971;-86
2021/08/10 10:02:22;;;;;;;17.95;8.03;;;;;;;41.11;36.89;100446.30;1776041;80;21051;-86
2021/08/10 10:04:52;;;;;;;14.87;8.50;;;;;;;40.52;37.74;100455.61;1776125;80;21051;-86
2021/08/10 10:07:19;;;;;;;15.23;7.65;;;;;;;40.10;37.92;100451.31;1695293;84;21145;-86
2021/08/10 10:09:45;;;;;;;15.70;7.95;;;;;;;40.00;37.69;100455.36;1694515;84;21235;-86
2021/08/10 10:12:12;;;;;;;19.77;8.20;;;;;;;39.90;38.18;100455.19;1694822;84;20971;-88
2021/08/10 10:14:39;;;;;;;17.50;7.97;;;;;;;39.84;38.03;100455.64;1692732;84;21303;-88
2021/08/10 10:17:10;;;;;;;19.25;8.85;;;;;;;39.47;38.91;100447.01;1695232;84;21082;-86
2021/08/10 10:19:39;;;;;;;17.65;8.25;;;;;;;39.18;40.57;100452.95;1695246;84;21098;-87
2021/08/10 10:22:17;;;;;;;15.70;8.85;;;;;;;39.12;40.05;100444.93;1659567;86;21078;-86
2021/08/10 10:24:53;;;;;;;20.62;8.43;;;;;;;39.02;39.71;100441.28;1659236;86;21487;-88
2021/08/10 10:27:20;;;;;;;19.37;9.33;;;;;;;38.99;40.35;100440.16;1650948;87;21144;-87
2021/08/10 10:29:48;;;;;;;20.95;10.20;;;;;;;38.77;39.62;100440.76;1649863;87;20972;-84
2021/08/10 10:32:19;;;;;;;14.93;8.05;;;;;;;38.85;39.93;100445.70;1650329;87;21050;-87
2021/08/10 10:34:46;;;;;;;17.82;8.95;;;;;;;38.85;40.75;100444.30;1650393;87;21027;-87
2021/08/10 10:37:22;;;;;;;15.10;8.55;;;;;;;38.79;40.30;100438.28;1650051;87;21531;-88
2021/08/10 10:39:51;;;;;;;16.45;8.10;;;;;;;38.65;39.69;100435.35;1648546;87;21183;-86
2021/08/10 10:42:18;;;;;;;20.32;8.90;;;;;;;38.38;40.08;100435.27;1650101;87;21377;-87
2021/08/10 10:44:52;;;;;;;24.12;9.18;;;;;;;38.37;41.29;100427.29;1630108;87;21079;-85
2021/08/10 10:47:29;;;;;;;18.35;8.48;;;;;;;38.40;41.03;100422.96;1650042;87;21078;-88
2021/08/10 10:50:04;;;;;;;19.45;9.05;;;;;;;38.26;41.07;100419.84;1656754;84;21062;-88
2021/08/10 10:52:33;;;;;;;14.85;8.43;;;;;;;38.25;41.50;100419.05;1692921;84;21016;-88
2021/08/10 10:55:01;;;;;;;12.00;7.85;;;;;;;38.26;41.48;100411.39;1693017;84;21073;-88
2021/08/10 10:57:35;;;;;;;18.95;8.10;;;;;;;38.05;41.14;100412.30;1693015;84;21111;-87
2021/08/10 11:00:14;;;;;;;14.75;8.10;;;;;;;37.94;39.55;100402.80;1693163;84;21075;-87
2021/08/10 11:02:44;;;;;;;15.20;7.40;;;;;;;37.90;41.33;100397.89;1692812;84;21525;-87
2021/08/10 11:05:22;;;;;;;14.40;8.40;;;;;;;37.97;40.68;100397.52;1717062;82;21479;-87
2021/08/10 11:07:52;;;;;;;16.15;8.38;;;;;;;38.05;40.60;100394.62;1720741;82;21036;-88
2021/08/10 11:10:40;;;;;;;16.62;8.23;;;;;;;38.22;40.88;100390.41;1719479;83;21193;-83
2021/08/10 11:13:36;;;;;;;14.10;7.58;;;;;;;38.29;39.10;100383.73;1719749;82;21102;-82
2021/08/10 11:16:05;;;;;;;18.30;9.65;;;;;;;37.96;38.87;100388.29;1696612;84;21042;-88
2021/08/10 11:18:33;;;;;;;22.13;9.75;;;;;;;38.10;40.75;100384.20;1714440;81;21228;-89